createdAt,value
2023-02-12T00:01:01.513Z,-9.95
2023-02-12T00:04:06.378Z,-9.44
2023-02-12T00:07:10.776Z,-9.74
2023-02-12T00:10:19.378Z,-9.53
2023-02-12T00:13:24.952Z,-9.24
2023-02-12T00:16:32.093Z,-9.13
2023-02-12T00:19:39.636Z,-8.62
2023-02-12T00:22:47.296Z,-9.33
2023-02-12T00:25:54.571Z,-9.06
2023-02-12T00:28:58.833Z,-9.05
2023-02-12T00:32:05.742Z,-9.35
2023-02-12T00:35:10.137Z,-8.80
2023-02-12T00:38:14.963Z,-8.32
2023-02-12T00:41:22.937Z,-7.66
2023-02-12T00:44:27.386Z,-7.41
2023-02-12T00:47:34.913Z,-6.39
2023-02-12T00:50:39.455Z,-7.30
2023-02-12T00:53:46.684Z,-7.34
2023-02-12T00:56:56.341Z,-7.94
2023-02-12T01:00:05.871Z,-7.18
2023-02-12T01:03:10.316Z,-6.08
2023-02-12T01:06:18.428Z,-4.87
2023-02-12T01:09:23.961Z,-3.22
2023-02-12T01:12:30.412Z,-2.66
2023-02-12T01:15:34.608Z,-3.36
2023-02-12T01:18:41.827Z,-3.16
2023-02-12T01:21:48.203Z,-2.53
2023-02-12T01:24:53.010Z,-1.26
2023-02-12T01:28:02.981Z,-3.39
2023-02-12T01:31:21.919Z,-4.97
2023-02-12T01:34:36.688Z,-5.85
2023-02-12T01:37:43.757Z,-5.73
2023-02-12T01:40:53.945Z,-5.30
2023-02-12T01:44:14.665Z,-5.60
2023-02-12T01:51:22.424Z,-6.76
2023-02-12T01:59:57.258Z,-4.67
2023-02-12T02:03:59.344Z,-3.65
2023-02-12T02:12:15.147Z,-2.18
2023-02-12T02:15:34.353Z,-2.17
2023-02-12T02:19:07.809Z,-1.68
2023-02-12T02:22:23.869Z,-2.69
2023-02-12T02:25:51.855Z,-1.94
2023-02-12T02:29:46.397Z,-2.01
2023-02-12T02:33:18.128Z,-2.17
2023-02-12T02:36:58.312Z,-2.37
2023-02-12T02:40:35.957Z,-2.58
2023-02-12T02:44:04.434Z,-3.66
2023-02-12T02:47:13.862Z,-3.07
2023-02-12T02:50:21.475Z,-2.87
2023-02-12T02:53:33.723Z,-2.73
2023-02-12T02:56:42.109Z,-3.03
2023-02-12T02:59:55.519Z,-3.60
2023-02-12T03:03:07.733Z,-4.48
2023-02-12T03:06:21.172Z,-4.68
2023-02-12T03:09:33.944Z,-4.05
2023-02-12T03:13:07.085Z,-3.28
2023-02-12T03:16:28.340Z,-4.18
2023-02-12T03:19:43.748Z,-4.00
2023-02-12T03:22:54.467Z,-4.28
2023-02-12T03:26:21.687Z,-4.14
2023-02-12T03:29:27.959Z,-4.36
2023-02-12T03:32:47.602Z,-4.74
2023-02-12T03:36:09.133Z,-4.39
2023-02-12T03:39:26.516Z,-3.60
2023-02-12T03:42:49.918Z,-3.11
2023-02-12T03:46:18.190Z,-5.12
2023-02-12T03:49:32.664Z,-4.63
2023-02-12T03:53:02.080Z,-4.45
2023-02-12T03:56:13.941Z,-4.58
2023-02-12T03:59:20.283Z,-5.11
2023-02-12T04:02:25.082Z,-3.94
2023-02-12T04:05:29.732Z,-4.31
2023-02-12T04:08:34.425Z,-4.20
2023-02-12T04:12:07.345Z,-3.93
2023-02-12T04:15:30.324Z,-4.18
2023-02-12T04:18:52.481Z,-4.49
2023-02-12T04:22:11.643Z,-4.19
2023-02-12T04:25:18.155Z,-4.47
2023-02-12T04:28:37.602Z,-5.02
2023-02-12T04:31:55.957Z,-4.63
2023-02-12T04:35:25.060Z,-4.52
2023-02-12T04:38:46.082Z,-4.49
2023-02-12T04:42:06.395Z,-3.97
2023-02-12T04:45:15.580Z,-4.41
2023-02-12T04:48:19.768Z,-4.40
2023-02-12T04:51:24.277Z,-5.01
2023-02-12T04:54:28.429Z,-5.28
2023-02-12T04:57:32.621Z,-4.92
2023-02-12T05:00:36.756Z,-5.11
2023-02-12T05:03:41.074Z,-4.66
2023-02-12T05:06:46.398Z,-4.65
2023-02-12T05:09:50.150Z,-4.73
2023-02-12T05:12:55.244Z,-4.85
2023-02-12T05:15:59.779Z,-5.49
2023-02-12T05:19:04.373Z,-5.35
2023-02-12T05:22:08.801Z,-5.21
2023-02-12T05:25:12.937Z,-5.61
2023-02-12T05:28:17.052Z,-4.81
2023-02-12T05:31:24.432Z,-5.00
2023-02-12T05:34:28.433Z,-5.89
2023-02-12T05:37:35.749Z,-5.52
2023-02-12T05:40:41.133Z,-4.95
2023-02-12T05:43:49.161Z,-5.05
2023-02-12T05:46:53.542Z,-4.74
2023-02-12T05:49:57.658Z,-4.85
2023-02-12T05:53:02.548Z,-4.67
2023-02-12T05:56:25.594Z,-5.03
2023-02-12T05:59:30.211Z,-5.32
2023-02-12T06:02:38.028Z,-5.24
2023-02-12T06:05:42.452Z,-5.92
2023-02-12T06:08:50.114Z,-5.76
2023-02-12T06:11:54.109Z,-5.90
2023-02-12T06:14:58.440Z,-5.69
2023-02-12T06:18:02.494Z,-5.49
2023-02-12T06:21:07.086Z,-5.73
2023-02-12T06:24:16.578Z,-5.18
2023-02-12T06:27:21.570Z,-5.44
2023-02-12T06:30:26.199Z,-6.23
2023-02-12T06:33:30.948Z,-5.98
2023-02-12T06:36:35.778Z,-6.11
2023-02-12T06:39:40.220Z,-6.04
2023-02-12T06:42:44.566Z,-5.83
2023-02-12T06:45:49.010Z,-6.44
2023-02-12T06:48:57.831Z,-6.89
2023-02-12T06:52:03.420Z,-6.22
2023-02-12T06:55:08.148Z,-6.12
2023-02-12T06:58:12.042Z,-6.04
2023-02-12T07:05:07.697Z,-5.87
2023-02-12T07:08:12.500Z,-6.08
2023-02-12T07:11:17.303Z,-5.84
2023-02-12T07:14:21.572Z,-5.60
2023-02-12T07:17:26.086Z,-5.93
2023-02-12T07:20:30.368Z,-6.14
2023-02-12T07:23:35.921Z,-6.42
2023-02-12T07:26:40.733Z,-6.63
2023-02-12T07:29:47.831Z,-6.69
2023-02-12T07:32:52.187Z,-6.61
2023-02-12T07:35:56.904Z,-6.71
2023-02-12T07:39:02.530Z,-7.10
2023-02-12T07:42:07.176Z,-6.94
2023-02-12T07:45:11.990Z,-7.14
2023-02-12T07:48:16.279Z,-7.14
2023-02-12T07:51:21.019Z,-7.13
2023-02-12T07:54:28.229Z,-7.34
2023-02-12T07:57:32.625Z,-7.48
2023-02-12T08:00:37.038Z,-7.79
2023-02-12T08:03:41.981Z,-8.07
2023-02-12T08:06:49.327Z,-7.90
2023-02-12T08:09:54.384Z,-8.06
2023-02-12T08:12:58.759Z,-7.82
2023-02-12T08:16:11.752Z,-8.19
2023-02-12T08:19:20.476Z,-8.72
2023-02-12T08:22:25.364Z,-8.92
2023-02-12T08:25:29.820Z,-8.50
2023-02-12T08:28:33.920Z,-9.10
2023-02-12T08:31:42.263Z,-8.95
2023-02-12T08:34:46.261Z,-8.90
2023-02-12T08:37:50.342Z,-8.90
2023-02-12T08:40:54.817Z,-9.24
2023-02-12T08:44:01.049Z,-9.30
2023-02-12T08:47:07.567Z,-9.40
2023-02-12T08:50:12.350Z,-9.60
2023-02-12T08:53:16.328Z,-10.11
2023-02-12T08:56:21.140Z,-10.12
2023-02-12T08:59:25.641Z,-10.28
2023-02-12T09:02:29.972Z,-10.26
2023-02-12T09:05:34.754Z,-9.77
2023-02-12T09:08:40.569Z,-10.20
2023-02-12T09:11:45.593Z,-10.11
2023-02-12T09:14:51.496Z,-10.10
2023-02-12T09:17:56.845Z,-10.34
2023-02-12T09:21:16.847Z,-10.40
2023-02-12T09:24:21.379Z,-10.38
2023-02-12T09:27:25.868Z,-10.54
2023-02-12T09:30:31.156Z,-10.72
2023-02-12T09:33:35.873Z,-10.78
2023-02-12T09:36:40.431Z,-11.37
2023-02-12T09:39:46.070Z,-11.01
2023-02-12T09:43:21.302Z,-11.18
2023-02-12T09:46:35.009Z,-10.89
2023-02-12T09:50:14.482Z,-11.00
2023-02-12T09:53:22.874Z,-10.88
2023-02-12T09:56:29.401Z,-10.78
2023-02-12T09:59:44.573Z,-10.97
2023-02-12T10:02:54.101Z,-11.13
2023-02-12T10:06:08.825Z,-11.22
2023-02-12T10:09:33.377Z,-11.61
2023-02-12T10:12:50.254Z,-11.91
2023-02-12T10:16:01.961Z,-12.07
2023-02-12T10:19:33.114Z,-12.02
2023-02-12T10:22:56.027Z,-11.88
2023-02-12T10:26:16.024Z,-12.24
2023-02-12T10:29:31.637Z,-12.23
2023-02-12T10:32:37.775Z,-12.12
2023-02-12T10:35:50.765Z,-12.26
2023-02-12T10:39:05.974Z,-12.17
2023-02-12T10:42:17.550Z,-12.13
2023-02-12T10:45:30.139Z,-12.37
2023-02-12T10:48:40.140Z,-12.41
2023-02-12T10:51:53.724Z,-12.14
2023-02-12T10:54:58.002Z,-12.18
2023-02-12T10:58:04.365Z,-12.83
2023-02-12T11:01:31.883Z,-13.00
2023-02-12T11:04:36.610Z,-13.13
2023-02-12T11:07:50.282Z,-13.29
2023-02-12T11:10:59.024Z,-13.30
2023-02-12T11:14:17.509Z,-13.10
2023-02-12T11:17:30.682Z,-12.86
2023-02-12T11:21:02.426Z,-12.43
2023-02-12T11:24:32.970Z,-12.36
2023-02-12T11:27:41.087Z,-12.97
2023-02-12T11:30:58.610Z,-13.12
2023-02-12T11:34:05.982Z,-13.31
2023-02-12T11:37:21.071Z,-13.46
2023-02-12T11:40:36.590Z,-13.43
2023-02-12T11:43:41.968Z,-13.32
2023-02-12T11:47:10.162Z,-14.01
2023-02-12T11:50:23.243Z,-14.04
2023-02-12T11:53:50.236Z,-14.32
2023-02-12T11:56:56.275Z,-14.31
2023-02-12T12:00:03.633Z,-14.67
2023-02-12T12:03:26.579Z,-14.07
2023-02-12T12:06:47.777Z,-13.82
2023-02-12T12:10:01.563Z,-14.22
2023-02-12T12:13:26.061Z,-14.54
2023-02-12T12:17:09.302Z,-14.71
2023-02-12T12:20:25.065Z,-14.85
2023-02-12T12:23:43.788Z,-14.62
2023-02-12T12:27:01.209Z,-14.32
2023-02-12T12:30:12.420Z,-14.63
2023-02-12T12:33:38.038Z,-15.08
2023-02-12T12:37:21.047Z,-14.50
2023-02-12T12:40:52.072Z,-14.53
2023-02-12T12:44:23.520Z,-14.40
2023-02-12T12:47:36.868Z,-14.45
2023-02-12T12:50:47.144Z,-14.94
2023-02-12T12:54:33.831Z,-15.42
2023-02-12T12:57:57.887Z,-15.06
2023-02-12T13:01:23.416Z,-15.38
2023-02-12T13:04:55.725Z,-15.48
2023-02-12T13:08:27.466Z,-15.81
2023-02-12T13:11:42.630Z,-15.81
2023-02-12T13:15:05.073Z,-15.99
2023-02-12T13:18:22.086Z,-16.07
2023-02-12T13:21:42.732Z,-15.67
2023-02-12T13:24:55.957Z,-15.86
2023-02-12T13:28:02.502Z,-15.79
2023-02-12T13:31:31.789Z,-16.48
2023-02-12T13:34:38.286Z,-16.74
2023-02-12T13:37:46.279Z,-17.20
2023-02-12T13:40:53.250Z,-16.66
2023-02-12T13:44:33.542Z,-17.40
2023-02-12T13:48:10.546Z,-17.00
2023-02-12T13:51:30.649Z,-17.21
2023-02-12T13:54:40.787Z,-17.49
2023-02-12T13:57:45.110Z,-17.26
2023-02-12T14:00:49.963Z,-16.74
2023-02-12T14:03:56.739Z,-16.73
2023-02-12T14:07:09.704Z,-17.15
2023-02-12T14:10:33.076Z,-17.57
2023-02-12T14:13:55.934Z,-17.68
2023-02-12T14:17:33.023Z,-17.51
2023-02-12T14:20:40.967Z,-17.19
2023-02-12T14:23:50.848Z,-17.22
2023-02-12T14:26:55.085Z,-17.15
2023-02-12T14:30:11.497Z,-17.40
2023-02-12T14:33:24.420Z,-17.18
2023-02-12T14:36:39.671Z,-16.66
2023-02-12T14:40:28.409Z,-16.44
2023-02-12T14:43:58.993Z,-16.49
2023-02-12T14:47:40.657Z,-16.51
2023-02-12T14:50:51.365Z,-16.36
2023-02-12T14:53:57.294Z,-16.79
2023-02-12T14:57:06.902Z,-16.82
2023-02-12T15:00:32.901Z,-16.92
2023-02-12T15:03:39.723Z,-17.15
2023-02-12T15:06:54.072Z,-17.01
2023-02-12T15:10:11.642Z,-16.94
2023-02-12T15:13:31.067Z,-17.07
2023-02-12T15:17:11.074Z,-17.75
2023-02-12T15:20:26.633Z,-18.00
2023-02-12T15:23:46.416Z,-17.81
2023-02-12T15:26:56.637Z,-17.63
2023-02-12T15:30:01.998Z,-18.28
2023-02-12T15:33:09.074Z,-18.49
2023-02-12T15:36:19.668Z,-18.19
2023-02-12T15:39:26.314Z,-18.52
2023-02-12T15:42:56.656Z,-19.84
2023-02-12T15:46:09.874Z,-18.40
2023-02-12T15:49:23.097Z,-18.43
2023-02-12T15:52:35.573Z,-18.10
2023-02-12T15:55:43.732Z,-18.15
2023-02-12T15:58:51.401Z,-18.14
2023-02-12T16:02:03.100Z,-18.24
2023-02-12T16:05:08.618Z,-18.68
2023-02-12T16:08:18.546Z,-18.73
2023-02-12T16:11:24.563Z,-18.58
2023-02-12T16:14:41.649Z,-19.45
2023-02-12T16:17:49.100Z,-18.86
2023-02-12T16:21:16.964Z,-18.68
2023-02-12T16:24:28.300Z,-18.80
2023-02-12T16:27:37.251Z,-19.55
2023-02-12T16:30:44.110Z,-19.32
2023-02-12T16:33:54.013Z,-19.63
2023-02-12T16:36:58.463Z,-19.81
2023-02-12T16:40:11.245Z,-19.56
2023-02-12T16:43:28.045Z,-18.84
2023-02-12T16:46:56.755Z,-19.11
2023-02-12T16:50:03.402Z,-18.95
2023-02-12T16:53:23.544Z,-19.67
2023-02-12T16:56:35.016Z,-20.30
2023-02-12T16:59:44.252Z,-20.28
2023-02-12T17:02:51.898Z,-19.76
2023-02-12T17:05:59.387Z,-19.97
2023-02-12T17:09:07.143Z,-20.37
2023-02-12T17:12:25.008Z,-19.98
2023-02-12T17:15:39.128Z,-19.77
2023-02-12T17:18:43.600Z,-20.50
2023-02-12T17:21:50.292Z,-20.53
2023-02-12T17:24:55.567Z,-20.93
2023-02-12T17:28:02.457Z,-20.78
2023-02-12T17:31:07.946Z,-20.01
2023-02-12T17:34:19.836Z,-19.77
2023-02-12T17:37:25.412Z,-20.15
2023-02-12T17:40:30.241Z,-20.13
2023-02-12T17:43:37.210Z,-20.13
2023-02-12T17:46:46.191Z,-20.21
2023-02-12T17:49:50.717Z,-20.40
2023-02-12T17:52:54.947Z,-21.13
2023-02-12T17:56:02.004Z,-21.28
2023-02-12T17:59:06.253Z,-21.06
2023-02-12T18:02:12.676Z,-20.58
2023-02-12T18:05:17.337Z,-20.68
2023-02-12T18:08:21.943Z,-20.34
2023-02-12T18:11:26.724Z,-20.40
2023-02-12T18:14:31.146Z,-20.61
2023-02-12T18:17:39.096Z,-20.59
2023-02-12T18:20:45.722Z,-20.55
2023-02-12T18:23:50.228Z,-20.83
2023-02-12T18:26:54.625Z,-21.09
2023-02-12T18:29:59.470Z,-20.91
2023-02-12T18:33:04.122Z,-21.78
2023-02-12T18:36:17.856Z,-21.26
2023-02-12T18:39:22.082Z,-20.91
2023-02-12T18:42:27.027Z,-20.84
2023-02-12T18:45:31.342Z,-20.93
2023-02-12T18:48:35.872Z,-21.37
2023-02-12T18:51:41.804Z,-21.65
2023-02-12T18:55:19.363Z,-21.52
2023-02-12T18:58:24.328Z,-21.39
2023-02-12T19:01:29.444Z,-21.15
2023-02-12T19:04:34.123Z,-21.26
2023-02-12T19:07:38.464Z,-21.36
2023-02-12T19:10:43.322Z,-21.35
2023-02-12T19:13:47.223Z,-21.47
2023-02-12T19:16:52.127Z,-21.85
2023-02-12T19:19:56.292Z,-21.93
2023-02-12T19:23:00.701Z,-22.09
2023-02-12T19:26:11.055Z,-21.91
2023-02-12T19:29:15.235Z,-21.50
2023-02-12T19:32:19.743Z,-21.22
2023-02-12T19:35:23.552Z,-21.35
2023-02-12T19:38:27.821Z,-21.03
2023-02-12T19:41:33.658Z,-21.43
2023-02-12T19:44:38.303Z,-21.85
2023-02-12T19:47:42.948Z,-21.86
2023-02-12T19:50:47.337Z,-21.66
2023-02-12T19:53:51.500Z,-22.06
2023-02-12T19:56:56.380Z,-21.95
2023-02-12T20:00:00.763Z,-21.79
2023-02-12T20:03:05.508Z,-21.60
2023-02-12T20:06:14.270Z,-21.43
2023-02-12T20:09:19.472Z,-21.89
2023-02-12T20:12:23.794Z,-22.49
2023-02-12T20:15:28.213Z,-22.26
2023-02-12T20:18:32.566Z,-22.46
2023-02-12T20:21:36.815Z,-22.89
2023-02-12T20:24:40.957Z,-22.65
2023-02-12T20:27:45.421Z,-22.93
2023-02-12T20:30:49.830Z,-22.91
2023-02-12T20:34:03.017Z,-22.50
2023-02-12T20:37:07.845Z,-22.46
2023-02-12T20:40:13.058Z,-22.55
2023-02-12T20:43:17.438Z,-22.68
2023-02-12T20:46:24.721Z,-22.65
2023-02-12T20:49:29.346Z,-23.02
2023-02-12T20:52:33.725Z,-22.77
2023-02-12T20:55:37.609Z,-23.03
2023-02-12T20:58:45.494Z,-22.73
2023-02-12T21:01:49.987Z,-21.94
2023-02-12T21:04:56.933Z,-21.56
2023-02-12T21:08:01.084Z,-21.95
2023-02-12T21:11:20.290Z,-22.10
2023-02-12T21:14:25.154Z,-22.80
2023-02-12T21:17:29.585Z,-22.92
2023-02-12T21:20:33.800Z,-22.87
2023-02-12T21:23:38.590Z,-23.27
2023-02-12T21:26:42.548Z,-23.19
2023-02-12T21:29:46.873Z,-23.41
2023-02-12T21:32:51.984Z,-23.92
2023-02-12T21:35:56.475Z,-24.01
2023-02-12T21:39:01.837Z,-23.55
2023-02-12T21:42:06.191Z,-23.81
2023-02-12T21:45:10.990Z,-23.28
2023-02-12T21:48:15.361Z,-23.51
2023-02-12T21:51:23.853Z,-23.74
2023-02-12T21:54:28.586Z,-24.26
2023-02-12T21:57:33.314Z,-24.18
2023-02-12T22:00:37.257Z,-23.67
2023-02-12T22:03:53.269Z,-24.07
2023-02-12T22:07:00.442Z,-23.54
2023-02-12T22:10:04.870Z,-24.06
2023-02-12T22:13:09.089Z,-23.20
2023-02-12T22:16:15.506Z,-22.82
2023-02-12T22:19:19.867Z,-23.04
2023-02-12T22:22:24.642Z,-23.18
2023-02-12T22:25:28.796Z,-23.29
2023-02-12T22:28:41.874Z,-23.25
2023-02-12T22:31:47.862Z,-22.89
2023-02-12T22:34:52.349Z,-23.68
2023-02-12T22:37:59.619Z,-23.97
2023-02-12T22:41:07.304Z,-23.83
2023-02-12T22:44:13.838Z,-23.90
2023-02-12T22:47:18.324Z,-23.77
2023-02-12T22:50:22.331Z,-24.14
2023-02-12T22:53:27.098Z,-23.83
2023-02-12T22:56:31.517Z,-23.68
2023-02-12T22:59:35.616Z,-23.37
2023-02-12T23:02:39.602Z,-22.83
2023-02-12T23:05:44.017Z,-22.43
2023-02-12T23:08:52.148Z,-22.68
2023-02-12T23:11:56.701Z,-22.65
2023-02-12T23:15:01.144Z,-22.23
2023-02-12T23:18:06.074Z,-21.46
2023-02-12T23:21:10.933Z,-20.48
2023-02-12T23:24:15.680Z,-19.63
2023-02-12T23:27:20.069Z,-19.52
2023-02-12T23:30:24.452Z,-19.22
2023-02-12T23:33:28.880Z,-17.35
2023-02-12T23:36:33.909Z,-18.18
2023-02-12T23:39:39.986Z,-18.07
2023-02-12T23:42:44.427Z,-18.65
2023-02-12T23:45:48.751Z,-19.95
2023-02-12T23:48:53.019Z,-18.48
2023-02-12T23:51:57.364Z,-17.85
2023-02-12T23:55:01.630Z,-17.77
2023-02-12T23:58:07.398Z,-18.46
